Oceanis — SVBC9 — position and weather

sailwx.info

Track history (hours):
 
Tides and Currents Weather Stations Pressure Air Temp Water Temp Dewpoint Dewpoint Depression Visibility Wind Speed Wind Dir Waves Ship Positions

Oceanis

Last reported at 2014-Jun-14 19:32 UTC. Time now 2014-Jul-25 13:44 UTC.
Position N 01°16' E 103°23'.
Warning: this ship's position is 40 days out of date.

Length 330 m; draft 11.3 m.

Type: Tanker. MMSI: 241089000.

Date/timePositionNaut miles runAvg speedWind from/ knotsBaromVisibWave heightAir tempDewpointWater temp
2014-Jun-14 19:32N 01°16' E 103°23'1010.5
2014-Jun-14 18:34N 01°12' E 103°32'3 2.6
2014-Jun-14 17:34N 01°12' E 103°35'8 8.2
2014-Jun-14 16:33N 01°09' E 103°43'9 9.3
2014-Jun-14 15:33N 01°12' E 103°52'8 7.7
2014-Jun-14 14:32N 01°15' E 103°59'  
2014-Jun-10 01:32N 19°46' E 108°58'9 9.7
2014-Jun-10 00:33N 19°48' E 109°08'1 0.5
2014-Jun-09 23:22N 19°48' E 109°08'0 0.0
2014-Jun-09 18:07N 19°48' E 109°08'0 0.0
2014-Jun-09 17:31N 19°48' E 109°08'0 0.0
2014-Jun-09 11:22N 19°48' E 109°08'0 0.0
2014-Jun-09 06:25N 19°48' E 109°08'0 0.0
2014-Jun-09 05:19N 19°48' E 109°08'0 0.0
2014-Jun-09 04:25N 19°48' E 109°08'0 0.0
2014-Jun-08 20:04N 19°48' E 109°08'0 0.0
2014-Jun-08 07:10N 19°48' E 109°08'0 0.1
2014-Jun-08 06:33N 19°48' E 109°08'3 2.9
2014-Jun-08 05:33N 19°48' E 109°05'4 3.9
2014-Jun-08 04:33N 19°48' E 109°01'1111.0
2014-Jun-08 03:31N 19°44' E 108°50'128 3.6
2014-Jun-06 16:30N 21°03' E 110°37'1111.2
2014-Jun-06 15:33N 21°07' E 110°26'  
Track history (hours):
 
Tides and Currents Weather Stations Pressure Air Temp Water Temp Dewpoint Dewpoint Depression Visibility Wind Speed Wind Dir Waves Ship Positions

Oceanis

Last reported at 2014-Jun-14 19:32 UTC. Time now 2014-Jul-25 13:44 UTC.
Position N 01°16' E 103°23'.
Warning: this ship's position is 40 days out of date.

Length 330 m; draft 11.3 m.

Type: Tanker. MMSI: 241089000.

Date/timePositionNaut miles runAvg speedWind from/ knotsBaromVisibWave heightAir tempDewpointWater temp
2014-Jun-14 19:32N 01°16' E 103°23'1010.5
2014-Jun-14 18:34N 01°12' E 103°32'3 2.6
2014-Jun-14 17:34N 01°12' E 103°35'8 8.2
2014-Jun-14 16:33N 01°09' E 103°43'9 9.3
2014-Jun-14 15:33N 01°12' E 103°52'8 7.7
2014-Jun-14 14:32N 01°15' E 103°59'  
2014-Jun-10 01:32N 19°46' E 108°58'9 9.7
2014-Jun-10 00:33N 19°48' E 109°08'1 0.5
2014-Jun-09 23:22N 19°48' E 109°08'0 0.0
2014-Jun-09 18:07N 19°48' E 109°08'0 0.0
2014-Jun-09 17:31N 19°48' E 109°08'0 0.0
2014-Jun-09 11:22N 19°48' E 109°08'0 0.0
2014-Jun-09 06:25N 19°48' E 109°08'0 0.0
2014-Jun-09 05:19N 19°48' E 109°08'0 0.0
2014-Jun-09 04:25N 19°48' E 109°08'0 0.0
2014-Jun-08 20:04N 19°48' E 109°08'0 0.0
2014-Jun-08 07:10N 19°48' E 109°08'0 0.1
2014-Jun-08 06:33N 19°48' E 109°08'3 2.9
2014-Jun-08 05:33N 19°48' E 109°05'4 3.9
2014-Jun-08 04:33N 19°48' E 109°01'1111.0
2014-Jun-08 03:31N 19°44' E 108°50'128 3.6
2014-Jun-06 16:30N 21°03' E 110°37'1111.2
2014-Jun-06 15:33N 21°07' E 110°26'  

Dump ship's entire track history